Ainsworth, NE

1:16 PM CDT on April 20, 2018 (GMT -0500)
Ainsworth Municipal | | Change Station

Elev 2589 ft 42.58 °N, 99.99 °W | Updated 21 minutes ago

Overcast
Overcast
49 °F
Feels Like 49 °F
N
14
Wind Variable Wind from South

Today
High -- | Low -- °F
--% Chance of Precip.
Yesterday
High -- | Low -- °F
Precip. -- in
Pressure 30.26 in
Visibility 10.0 miles
Clouds Mostly Cloudy 9000 ft
Overcast 11000 ft
Dew Point 32 °F
Humidity 53%
Rainfall 0.00 in
Snow Depth Not available.
6:50 AM 8:27 PM
Waxing Crescent, 26% visible
METAR KANW 201755Z AUTO 17012KT 10SM BKN090 OVC110 09/00 A3026 RMK AO2 T00940002 10095 20030
Pressure 30.26 in
Visibility 10.0 miles
Clouds Mostly Cloudy 9000 ft
Overcast 11000 ft
Dew Point 32 °F
Humidity 53%
Rainfall 0.00 in
Snow Depth Not available.
6:50 AM 8:27 PM
Waxing Crescent, 26% visible
METAR KANW 201755Z AUTO 17012KT 10SM BKN090 OVC110 09/00 A3026 RMK AO2 T00940002 10095 20030

Get Severe Weather Alerts

Thanks for signing up!

Be on the lookout for a verification email in your inbox.

You'll start receiving the daily forecast at 6 AM.

×

10-Day Weather Forecast

Almanac

Astronomy

Apr. 20, 2018 Rise Set
Actual Time
Civil Twilight
Nautical Twilight
Astronomical Twilight
Moon
Length of Visible Light
Length of Day
Tomorrow will be .
, % of the Moon is Illuminated

Today's Extremes

State Highs State Lows

Community

WunderPhotos

Category 6

Welcome to Category 6. This is the collective home for Weather Underground's featured writeups by Dr. Jeff Masters (right), Bob Henson (left), Chris Burt, and other regular contributors.

Nearby

Air Quality

  Air Quality AQ Index Pollutant
Not available.

Snow Depth

Station Depth Elevation

Earthquake Activity

City Distance Mag. Time & Date
Minimum magnitude displayed is 2.5.

Coastal Water Temperatures

Place Temperature

Stations

Nearby Weather Stations

Station Location Temp. Windchill Dew Point Humidity Wind Precip. Elev Updated Type
                   

Watches & Warnings

There are currently no watches in effect.